createdAt,value
2019-03-15T00:00:42.200Z,81.55
2019-03-15T00:03:49.123Z,81.01
2019-03-15T00:06:59.833Z,80.86
2019-03-15T00:10:07.330Z,80.35
2019-03-15T00:13:14.276Z,80.77
2019-03-15T00:16:21.178Z,81.42
2019-03-15T00:19:28.104Z,81.76
2019-03-15T00:22:35.152Z,83.04
2019-03-15T00:25:41.990Z,83.11
2019-03-15T00:28:48.945Z,83.66
2019-03-15T00:32:00.400Z,83.69
2019-03-15T00:35:09.127Z,84.12
2019-03-15T00:38:16.632Z,85.72
2019-03-15T00:41:23.826Z,86.79
2019-03-15T00:44:30.759Z,87.86
2019-03-15T00:47:39.002Z,89.47
2019-03-15T00:50:45.939Z,90.18
2019-03-15T00:53:54.686Z,91.19
2019-03-15T00:57:07.614Z,91.55
2019-03-15T01:00:15.230Z,91.61
2019-03-15T01:03:22.173Z,91.92
2019-03-15T01:06:29.044Z,91.42
2019-03-15T01:09:37.034Z,92.54
2019-03-15T01:12:45.467Z,92.71
2019-03-15T01:15:55.287Z,91.49
2019-03-15T01:19:05.962Z,90.32
2019-03-15T01:22:14.079Z,90.37
2019-03-15T01:25:24.077Z,89.75
2019-03-15T01:28:31.003Z,89.65
2019-03-15T01:31:37.877Z,89.11
2019-03-15T01:34:44.891Z,87.71
2019-03-15T01:37:51.820Z,87.75
2019-03-15T01:41:00.382Z,86.76
2019-03-15T01:44:07.363Z,86.68
2019-03-15T01:47:14.387Z,86.73
2019-03-15T01:50:21.382Z,86.16
2019-03-15T01:53:28.242Z,85.74
2019-03-15T01:56:35.288Z,86.11
2019-03-15T01:59:43.813Z,86.15
2019-03-15T02:02:50.731Z,86.17
2019-03-15T02:05:58.941Z,85.72
2019-03-15T02:09:09.296Z,85.11
2019-03-15T02:12:15.946Z,84.94
2019-03-15T02:15:22.902Z,85.65
2019-03-15T02:18:29.761Z,85.01
2019-03-15T02:21:36.779Z,84.87
2019-03-15T02:24:43.658Z,84.43
2019-03-15T02:27:50.626Z,84.54
2019-03-15T02:30:59.222Z,84.59
2019-03-15T02:34:06.152Z,84.17
2019-03-15T02:37:13.095Z,83.37
2019-03-15T02:40:20.220Z,83.22
2019-03-15T02:43:27.105Z,82.51
2019-03-15T02:46:34.187Z,82.22
2019-03-15T02:49:41.148Z,81.47
2019-03-15T02:52:48.285Z,81.30
2019-03-15T02:55:55.325Z,81.09
2019-03-15T02:59:02.405Z,81.12
2019-03-15T03:02:12.484Z,80.45
2019-03-15T03:05:19.433Z,80.89
2019-03-15T03:08:26.338Z,81.24
2019-03-15T03:11:33.135Z,79.96
2019-03-15T03:14:41.176Z,80.48
2019-03-15T03:17:48.165Z,79.51
2019-03-15T03:20:55.386Z,79.41
2019-03-15T03:24:02.511Z,79.55
2019-03-15T03:27:12.609Z,79.08
2019-03-15T03:30:19.456Z,79.18
2019-03-15T03:33:26.514Z,78.34
2019-03-15T03:36:33.520Z,79.68
2019-03-15T03:39:40.495Z,79.07
2019-03-15T03:42:47.555Z,79.33
2019-03-15T03:45:55.785Z,78.26
2019-03-15T03:49:04.302Z,78.62
2019-03-15T03:52:11.377Z,78.76
2019-03-15T03:55:18.281Z,78.28
2019-03-15T03:58:25.220Z,77.77
2019-03-15T04:01:32.186Z,78.26
2019-03-15T04:04:39.188Z,78.33
2019-03-15T04:07:46.069Z,79.12
2019-03-15T04:10:53.453Z,78.98
2019-03-15T04:14:03.236Z,79.31
2019-03-15T04:17:11.424Z,78.89
2019-03-15T04:20:19.790Z,79.21
2019-03-15T04:23:26.710Z,79.47
2019-03-15T04:26:33.607Z,79.93
2019-03-15T04:29:40.780Z,79.81
2019-03-15T04:32:47.602Z,80.07
2019-03-15T04:35:54.849Z,80.73
2019-03-15T04:39:01.816Z,80.78
2019-03-15T04:42:08.932Z,81.01
2019-03-15T04:45:15.916Z,81.37
2019-03-15T04:48:22.855Z,81.87
2019-03-15T04:51:32.911Z,82.22
2019-03-15T04:54:39.892Z,81.69
2019-03-15T04:57:46.769Z,82.14
2019-03-15T05:00:55.623Z,82.75
2019-03-15T05:04:02.578Z,82.02
2019-03-15T05:07:11.563Z,82.45
2019-03-15T05:10:18.505Z,82.44
2019-03-15T05:13:25.459Z,82.23
2019-03-15T05:16:32.370Z,82.12
2019-03-15T05:19:40.383Z,82.92
2019-03-15T05:22:47.446Z,83.47
2019-03-15T05:25:54.460Z,83.17
2019-03-15T05:29:01.401Z,83.64
2019-03-15T05:32:08.625Z,83.63
2019-03-15T05:35:15.673Z,84.23
2019-03-15T05:38:22.805Z,84.73
2019-03-15T05:41:29.737Z,84.73
2019-03-15T05:44:36.639Z,85.11
2019-03-15T05:47:43.596Z,85.63
2019-03-15T05:50:50.518Z,85.87
2019-03-15T05:53:58.621Z,85.94
2019-03-15T05:57:05.645Z,85.73
2019-03-15T06:00:13.809Z,85.07
2019-03-15T06:03:21.784Z,85.70
2019-03-15T06:06:28.664Z,85.24
2019-03-15T06:09:35.794Z,85.78
2019-03-15T06:12:42.709Z,85.86
2019-03-15T06:15:53.287Z,86.30
2019-03-15T06:19:01.910Z,85.87
2019-03-15T06:22:09.440Z,85.92
2019-03-15T06:25:16.353Z,86.41
2019-03-15T06:28:23.232Z,86.00
2019-03-15T06:31:30.118Z,85.93
2019-03-15T06:34:39.425Z,85.87
2019-03-15T06:37:45.722Z,85.81
2019-03-15T06:40:52.958Z,86.14
2019-03-15T06:44:00.102Z,85.88
2019-03-15T06:47:07.094Z,85.76
2019-03-15T06:50:14.062Z,85.43
2019-03-15T06:53:22.837Z,85.82
2019-03-15T06:56:29.726Z,85.85
2019-03-15T06:59:37.253Z,84.43
2019-03-15T07:02:46.400Z,84.91
2019-03-15T07:05:55.490Z,84.82
2019-03-15T07:09:05.122Z,84.34
2019-03-15T07:12:12.155Z,84.23
2019-03-15T07:15:19.047Z,83.84
2019-03-15T07:18:26.016Z,83.77
2019-03-15T07:21:32.999Z,83.43
2019-03-15T07:24:43.543Z,83.87
2019-03-15T07:27:49.311Z,82.51
2019-03-15T07:30:57.748Z,82.80
2019-03-15T07:34:04.641Z,82.71
2019-03-15T07:37:11.581Z,82.65
2019-03-15T07:40:18.581Z,81.84
2019-03-15T07:43:25.596Z,81.78
2019-03-15T07:46:32.573Z,81.74
2019-03-15T07:49:39.600Z,81.25
2019-03-15T07:52:46.529Z,80.60
2019-03-15T07:55:58.237Z,80.72
2019-03-15T07:59:04.930Z,80.09
2019-03-15T08:02:11.856Z,80.66
2019-03-15T08:05:18.875Z,80.22
2019-03-15T08:08:25.935Z,80.32
2019-03-15T08:11:32.886Z,80.03
2019-03-15T08:14:40.509Z,79.68
2019-03-15T08:17:47.640Z,78.42
2019-03-15T08:20:54.962Z,79.33
2019-03-15T08:24:03.574Z,79.36
2019-03-15T08:27:12.479Z,79.03
2019-03-15T08:30:19.485Z,78.98
2019-03-15T08:33:26.455Z,78.22
2019-03-15T08:36:33.502Z,78.12
2019-03-15T08:39:40.301Z,76.04
2019-03-15T08:42:47.385Z,75.45
2019-03-15T08:45:54.488Z,75.45
2019-03-15T08:49:01.643Z,76.20
2019-03-15T08:52:08.528Z,76.08
2019-03-15T08:55:15.528Z,74.21
2019-03-15T08:58:22.684Z,74.25
2019-03-15T09:01:29.611Z,75.12
2019-03-15T09:04:36.512Z,75.11
2019-03-15T09:07:43.446Z,74.88
2019-03-15T09:10:50.572Z,74.42
2019-03-15T09:13:57.445Z,75.17
2019-03-15T09:17:04.924Z,74.72
2019-03-15T09:20:11.913Z,74.17
2019-03-15T09:23:18.923Z,74.60
2019-03-15T09:26:25.906Z,74.44
2019-03-15T09:29:33.540Z,75.07
2019-03-15T09:32:40.479Z,74.52
2019-03-15T09:35:47.730Z,74.46
2019-03-15T09:38:55.747Z,74.76
2019-03-15T09:42:02.687Z,74.28
2019-03-15T09:45:11.699Z,74.98
2019-03-15T09:48:18.637Z,74.89
2019-03-15T09:51:25.622Z,74.98
2019-03-15T09:54:32.715Z,74.57
2019-03-15T09:57:39.688Z,74.17
2019-03-15T10:00:47.050Z,74.18
2019-03-15T10:03:54.443Z,74.56
2019-03-15T10:07:01.711Z,74.28
2019-03-15T10:10:13.823Z,74.24
2019-03-15T10:13:19.701Z,74.25
2019-03-15T10:16:26.756Z,73.86
2019-03-15T10:19:33.791Z,74.12
2019-03-15T10:22:41.871Z,73.33
2019-03-15T10:25:51.283Z,73.96
2019-03-15T10:28:59.758Z,74.71
2019-03-15T10:32:06.931Z,76.08
2019-03-15T10:35:14.097Z,75.87
2019-03-15T10:38:22.968Z,77.64
2019-03-15T10:41:30.041Z,77.45
2019-03-15T10:44:37.232Z,78.03
2019-03-15T10:47:44.197Z,78.66
2019-03-15T10:50:51.214Z,78.59
2019-03-15T10:53:58.286Z,79.58
2019-03-15T10:57:05.570Z,80.68
2019-03-15T11:00:15.693Z,81.38
2019-03-15T11:03:22.639Z,81.47
2019-03-15T11:06:29.590Z,81.48
2019-03-15T11:09:36.600Z,82.37
2019-03-15T11:12:43.559Z,83.83
2019-03-15T11:15:50.563Z,83.10
2019-03-15T11:18:59.407Z,83.21
2019-03-15T11:22:06.569Z,84.20
2019-03-15T11:25:13.655Z,82.43
2019-03-15T11:28:20.669Z,83.37
2019-03-15T11:31:27.492Z,83.31
2019-03-15T11:34:34.856Z,83.78
2019-03-15T11:37:41.788Z,83.04
2019-03-15T11:40:48.823Z,84.16
2019-03-15T11:43:56.240Z,85.40
2019-03-15T11:47:03.607Z,85.26
2019-03-15T11:50:11.944Z,83.88
2019-03-15T11:53:19.237Z,83.86
2019-03-15T11:56:27.342Z,84.14
2019-03-15T11:59:36.247Z,83.85
2019-03-15T12:02:43.257Z,83.41
2019-03-15T12:05:50.315Z,83.83
2019-03-15T12:08:57.454Z,84.40
2019-03-15T12:12:04.517Z,84.09
2019-03-15T12:15:11.881Z,84.57
2019-03-15T12:18:18.938Z,84.60
2019-03-15T12:21:25.927Z,85.19
2019-03-15T12:24:34.064Z,84.81
2019-03-15T12:27:41.046Z,84.95
2019-03-15T12:30:48.074Z,85.69
2019-03-15T12:33:57.575Z,85.91
2019-03-15T12:37:05.015Z,86.20
2019-03-15T12:40:12.188Z,85.16
2019-03-15T12:43:19.118Z,84.96
2019-03-15T12:46:26.007Z,85.80
2019-03-15T12:49:32.972Z,85.93
2019-03-15T12:52:47.338Z,86.38
2019-03-15T12:55:48.651Z,85.66
2019-03-15T12:58:56.065Z,86.22
2019-03-15T13:02:03.295Z,85.46
2019-03-15T13:05:10.258Z,85.90
2019-03-15T13:08:17.475Z,86.06
2019-03-15T13:11:24.419Z,84.64
2019-03-15T13:14:31.461Z,85.33
2019-03-15T13:17:38.773Z,83.76
2019-03-15T13:20:45.596Z,83.60
2019-03-15T13:23:52.900Z,83.96
2019-03-15T13:27:07.478Z,84.07
2019-03-15T13:30:11.115Z,83.86
2019-03-15T13:33:20.683Z,84.03
2019-03-15T13:36:27.011Z,84.66
2019-03-15T13:39:34.309Z,84.40
2019-03-15T13:42:41.158Z,85.64
2019-03-15T13:45:48.688Z,84.66
2019-03-15T13:48:57.203Z,84.42
2019-03-15T13:52:04.263Z,83.89
2019-03-15T13:55:11.830Z,84.82
2019-03-15T13:58:18.870Z,84.83
2019-03-15T14:01:25.830Z,84.67
2019-03-15T14:04:33.409Z,84.22
2019-03-15T14:07:40.432Z,84.50
2019-03-15T14:10:49.454Z,85.04
2019-03-15T14:13:57.502Z,85.32
2019-03-15T14:17:05.911Z,86.11
2019-03-15T14:20:16.118Z,85.70
2019-03-15T14:23:23.346Z,85.42
2019-03-15T14:26:30.285Z,86.20
2019-03-15T14:29:43.311Z,86.19
2019-03-15T14:32:50.529Z,87.45
2019-03-15T14:35:58.869Z,88.21
2019-03-15T14:39:08.076Z,89.16
2019-03-15T14:42:16.202Z,90.16
2019-03-15T14:45:23.316Z,90.48
2019-03-15T14:48:30.510Z,89.68
2019-03-15T14:51:37.429Z,91.26
2019-03-15T14:54:45.519Z,91.06
2019-03-15T14:57:53.867Z,91.18
2019-03-15T15:01:00.896Z,90.37
2019-03-15T15:04:08.884Z,90.77
2019-03-15T15:07:16.019Z,90.33
2019-03-15T15:10:23.059Z,90.19
2019-03-15T15:13:30.204Z,89.32
2019-03-15T15:16:37.154Z,89.16
2019-03-15T15:19:44.462Z,89.99
2019-03-15T15:22:51.433Z,89.19
2019-03-15T15:26:01.683Z,90.15
2019-03-15T15:29:08.620Z,89.49
2019-03-15T15:32:15.645Z,89.57
2019-03-15T15:35:22.626Z,89.26
2019-03-15T15:38:29.719Z,89.67
2019-03-15T15:41:36.661Z,89.39
2019-03-15T15:44:46.678Z,90.17
2019-03-15T15:47:53.997Z,90.13
2019-03-15T15:51:00.867Z,90.90
2019-03-15T15:54:07.852Z,89.95
2019-03-15T15:57:15.015Z,89.44
2019-03-15T16:00:22.058Z,89.95
2019-03-15T16:03:29.078Z,89.72
2019-03-15T16:06:36.129Z,89.21
2019-03-15T16:09:43.205Z,88.90
2019-03-15T16:12:50.307Z,89.34
2019-03-15T16:15:57.375Z,88.85
2019-03-15T16:19:04.482Z,88.72
2019-03-15T16:22:11.422Z,89.12
2019-03-15T16:25:18.267Z,88.79
2019-03-15T16:28:31.562Z,89.81
2019-03-15T16:31:34.012Z,89.30
2019-03-15T16:34:41.249Z,89.53
2019-03-15T16:37:48.162Z,90.14
2019-03-15T16:40:56.645Z,90.53
2019-03-15T16:44:03.557Z,90.50
2019-03-15T16:47:11.026Z,90.87
2019-03-15T16:50:18.143Z,90.21
2019-03-15T16:53:26.527Z,90.25
2019-03-15T16:56:33.543Z,89.69
2019-03-15T16:59:41.509Z,89.93
2019-03-15T17:02:48.408Z,90.07
2019-03-15T17:05:55.360Z,90.23
2019-03-15T17:09:02.462Z,89.77
2019-03-15T17:12:10.026Z,89.38
2019-03-15T17:15:19.856Z,88.78
2019-03-15T17:18:26.917Z,88.94
2019-03-15T17:21:36.246Z,87.91
2019-03-15T17:24:43.366Z,88.44
2019-03-15T17:27:52.570Z,87.95
2019-03-15T17:31:09.595Z,87.96
2019-03-15T17:34:08.944Z,87.73
2019-03-15T17:37:19.036Z,86.96
2019-03-15T17:40:25.983Z,87.24
2019-03-15T17:43:33.080Z,87.08
2019-03-15T17:46:40.045Z,87.87
2019-03-15T17:49:47.504Z,87.29
2019-03-15T17:52:54.768Z,87.72
2019-03-15T17:56:01.964Z,86.96
2019-03-15T17:59:12.889Z,87.48
2019-03-15T18:02:20.260Z,87.97
2019-03-15T18:05:27.194Z,88.00
2019-03-15T18:08:34.195Z,88.45
2019-03-15T18:11:41.280Z,88.16
2019-03-15T18:14:48.370Z,88.19
2019-03-15T18:18:00.023Z,89.31
2019-03-15T18:21:05.960Z,89.92
2019-03-15T18:24:12.954Z,90.16
2019-03-15T18:27:20.117Z,90.16
2019-03-15T18:30:27.127Z,90.92
2019-03-15T18:33:34.157Z,91.07
2019-03-15T18:36:45.422Z,91.14
2019-03-15T18:39:52.507Z,91.34
2019-03-15T18:42:59.552Z,91.65
2019-03-15T18:46:06.526Z,91.69
2019-03-15T18:49:13.486Z,91.86
2019-03-15T18:52:20.644Z,92.13
2019-03-15T18:55:27.717Z,92.41
2019-03-15T18:58:34.746Z,92.49
2019-03-15T19:01:41.733Z,92.58
2019-03-15T19:04:48.725Z,91.93
2019-03-15T19:07:55.867Z,91.43
2019-03-15T19:11:02.907Z,91.80
2019-03-15T19:14:12.419Z,91.98
2019-03-15T19:17:19.799Z,92.49
2019-03-15T19:20:29.609Z,91.61
2019-03-15T19:23:36.586Z,92.29
2019-03-15T19:26:44.732Z,93.52
2019-03-15T19:29:54.050Z,94.76
2019-03-15T19:33:01.684Z,94.93
2019-03-15T19:36:08.876Z,94.98
2019-03-15T19:39:15.903Z,95.09
2019-03-15T19:42:23.026Z,94.89
2019-03-15T19:45:30.081Z,94.76
2019-03-15T19:48:37.212Z,93.91
2019-03-15T19:51:44.259Z,93.79
2019-03-15T19:55:00.493Z,93.64
2019-03-15T19:58:02.039Z,92.61
2019-03-15T20:01:09.117Z,92.21
2019-03-15T20:04:16.246Z,92.12
2019-03-15T20:07:23.294Z,92.07
2019-03-15T20:10:31.477Z,92.47
2019-03-15T20:13:41.955Z,92.80
2019-03-15T20:16:48.967Z,92.75
2019-03-15T20:19:57.351Z,94.00
2019-03-15T20:23:04.570Z,93.94
2019-03-15T20:26:11.545Z,92.69
2019-03-15T20:29:18.652Z,93.07
2019-03-15T20:32:25.684Z,91.18
2019-03-15T20:35:35.649Z,91.93
2019-03-15T20:38:42.924Z,92.17
2019-03-15T20:41:51.625Z,91.41
2019-03-15T20:45:14.434Z,91.46
2019-03-15T20:48:21.604Z,92.55
2019-03-15T20:51:28.636Z,92.78
2019-03-15T20:54:36.683Z,93.03
2019-03-15T20:57:48.100Z,93.37
2019-03-15T21:00:57.678Z,93.90
2019-03-15T21:04:04.994Z,94.07
2019-03-15T21:07:11.893Z,93.43
2019-03-15T21:10:19.089Z,93.65
2019-03-15T21:13:25.996Z,93.92
2019-03-15T21:16:32.920Z,92.68
2019-03-15T21:19:40.552Z,92.63
2019-03-15T21:22:47.661Z,93.22
2019-03-15T21:25:55.104Z,94.27
2019-03-15T21:29:02.126Z,94.13
2019-03-15T21:32:09.221Z,94.58
2019-03-15T21:35:16.443Z,94.39
2019-03-15T21:38:23.366Z,94.68
2019-03-15T21:41:31.243Z,94.30
2019-03-15T21:44:38.179Z,94.54
2019-03-15T21:47:45.153Z,94.23
2019-03-15T21:50:52.240Z,94.24
2019-03-15T21:53:59.368Z,93.05
2019-03-15T21:57:06.316Z,92.69
2019-03-15T22:00:15.009Z,92.88
2019-03-15T22:03:22.218Z,92.46
2019-03-15T22:06:30.256Z,92.31
2019-03-15T22:09:37.143Z,92.36
2019-03-15T22:12:44.161Z,92.83
2019-03-15T22:15:53.249Z,92.71
2019-03-15T22:19:00.396Z,91.59
2019-03-15T22:22:07.452Z,91.61
2019-03-15T22:25:14.441Z,91.05
2019-03-15T22:28:21.425Z,90.43
2019-03-15T22:31:28.304Z,90.26
2019-03-15T22:34:35.255Z,90.04
2019-03-15T22:37:42.186Z,90.06
2019-03-15T22:40:50.992Z,89.89
2019-03-15T22:43:57.997Z,89.90
2019-03-15T22:47:05.142Z,89.43
2019-03-15T22:50:12.406Z,89.87
2019-03-15T22:53:20.800Z,89.29
2019-03-15T22:56:28.181Z,88.32
2019-03-15T22:59:35.129Z,88.37
2019-03-15T23:02:45.098Z,87.98
2019-03-15T23:05:54.476Z,87.13
2019-03-15T23:09:03.253Z,85.58
2019-03-15T23:12:10.229Z,86.29
2019-03-15T23:15:17.288Z,86.24
2019-03-15T23:18:24.312Z,87.28
2019-03-15T23:21:31.328Z,88.36
2019-03-15T23:24:38.286Z,89.00
2019-03-15T23:27:45.387Z,87.77
2019-03-15T23:30:54.571Z,87.48
2019-03-15T23:34:01.778Z,88.20
2019-03-15T23:37:08.801Z,88.68
2019-03-15T23:40:15.810Z,88.54
2019-03-15T23:43:22.838Z,87.89
2019-03-15T23:46:29.901Z,86.42
2019-03-15T23:49:36.943Z,85.54
2019-03-15T23:52:43.987Z,83.85
2019-03-15T23:55:55.104Z,83.89
2019-03-15T23:59:04.012Z,84.98
